createdAt,value
2019-03-24T00:02:14.438Z,6.00
2019-03-24T00:04:44.814Z,6.00
2019-03-24T00:07:15.218Z,5.90
2019-03-24T00:09:45.598Z,5.90
2019-03-24T00:12:16.834Z,6.00
2019-03-24T00:14:47.487Z,5.90
2019-03-24T00:17:18.458Z,5.80
2019-03-24T00:19:49.138Z,5.70
2019-03-24T00:22:20.527Z,5.80
2019-03-24T00:24:50.882Z,5.70
2019-03-24T00:27:21.279Z,5.60
2019-03-24T00:29:56.481Z,5.80
2019-03-24T00:32:27.974Z,5.80
2019-03-24T00:34:58.357Z,6.00
2019-03-24T00:37:29.149Z,6.00
2019-03-24T00:40:18.765Z,6.00
2019-03-24T00:42:49.142Z,6.00
2019-03-24T00:45:19.578Z,5.90
2019-03-24T00:47:50.273Z,5.80
2019-03-24T00:50:20.671Z,5.90
2019-03-24T00:52:51.330Z,5.90
2019-03-24T00:55:21.694Z,5.90
2019-03-24T00:57:52.350Z,5.80
2019-03-24T01:00:41.151Z,5.70
2019-03-24T01:03:11.617Z,5.70
2019-03-24T01:05:42.173Z,5.70
2019-03-24T01:08:13.005Z,5.60
2019-03-24T01:10:43.679Z,5.40
2019-03-24T01:13:15.243Z,5.30
2019-03-24T01:15:47.962Z,5.10
2019-03-24T01:18:18.496Z,4.90
2019-03-24T01:20:49.727Z,5.00
2019-03-24T01:23:20.378Z,5.00
2019-03-24T01:25:50.886Z,5.10
2019-03-24T01:28:21.825Z,5.20
2019-03-24T01:30:52.415Z,5.30
2019-03-24T01:33:22.810Z,5.20
2019-03-24T01:35:53.238Z,5.20
2019-03-24T01:38:24.206Z,5.00
2019-03-24T01:40:54.926Z,4.90
2019-03-24T01:43:25.598Z,4.90
2019-03-24T01:45:58.801Z,4.90
2019-03-24T01:48:29.106Z,4.90
2019-03-24T01:51:00.032Z,5.00
2019-03-24T01:53:31.303Z,4.90
2019-03-24T01:56:02.222Z,4.90
2019-03-24T01:58:32.976Z,4.80
2019-03-24T02:01:03.669Z,4.80
2019-03-24T02:03:34.581Z,4.80
2019-03-24T02:06:04.976Z,4.80
2019-03-24T02:08:35.930Z,4.70
2019-03-24T02:11:07.030Z,4.70
2019-03-24T02:13:37.670Z,4.70
2019-03-24T02:16:09.678Z,4.50
2019-03-24T02:18:40.822Z,4.40
2019-03-24T02:21:11.830Z,4.40
2019-03-24T02:23:42.778Z,4.30
2019-03-24T02:26:13.405Z,4.30
2019-03-24T02:28:44.094Z,4.20
2019-03-24T02:31:15.084Z,4.20
2019-03-24T02:33:45.970Z,4.20
2019-03-24T02:36:16.973Z,4.10
2019-03-24T02:38:47.642Z,4.00
2019-03-24T02:41:18.842Z,4.00
2019-03-24T02:43:49.162Z,4.00
2019-03-24T02:46:24.700Z,4.00
2019-03-24T02:48:52.257Z,4.00
2019-03-24T02:51:22.617Z,4.00
2019-03-24T02:53:52.981Z,4.00
2019-03-24T02:56:23.364Z,4.00
2019-03-24T02:58:53.679Z,4.00
2019-03-24T03:01:24.134Z,4.00
2019-03-24T03:03:54.878Z,3.90
2019-03-24T03:06:25.321Z,3.80
2019-03-24T03:08:55.690Z,3.80
2019-03-24T03:11:26.313Z,3.70
2019-03-24T03:13:56.666Z,3.70
2019-03-24T03:16:37.794Z,3.70
2019-03-24T03:18:59.352Z,3.60
2019-03-24T03:21:29.654Z,3.60
2019-03-24T03:24:00.047Z,3.60
2019-03-24T03:26:30.677Z,3.50
2019-03-24T03:29:01.074Z,3.50
2019-03-24T03:31:31.471Z,3.40
2019-03-24T03:34:01.718Z,3.40
2019-03-24T03:36:32.067Z,3.40
2019-03-24T03:39:02.453Z,3.40
2019-03-24T03:41:33.048Z,3.40
2019-03-24T03:44:04.001Z,3.40
2019-03-24T03:46:34.599Z,3.50
2019-03-24T03:49:05.273Z,3.40
2019-03-24T03:51:35.479Z,3.40
2019-03-24T03:54:06.564Z,3.20
2019-03-24T03:56:37.436Z,3.20
2019-03-24T03:59:07.711Z,3.10
2019-03-24T04:01:38.156Z,3.00
2019-03-24T04:04:08.545Z,3.00
2019-03-24T04:06:38.907Z,3.00
2019-03-24T04:09:09.312Z,3.00
2019-03-24T04:11:39.542Z,3.00
2019-03-24T04:14:09.916Z,2.90
2019-03-24T04:16:40.880Z,2.80
2019-03-24T04:19:13.404Z,2.70
2019-03-24T04:21:43.691Z,2.70
2019-03-24T04:24:14.139Z,2.70
2019-03-24T04:26:44.538Z,2.60
2019-03-24T04:29:14.983Z,2.60
2019-03-24T04:31:45.370Z,2.70
2019-03-24T04:34:16.071Z,2.80
2019-03-24T04:36:46.572Z,2.80
2019-03-24T04:39:16.941Z,3.10
2019-03-24T04:41:48.250Z,3.10
2019-03-24T04:44:18.745Z,3.20
2019-03-24T04:46:49.101Z,3.20
2019-03-24T04:49:19.461Z,3.30
2019-03-24T04:51:49.750Z,3.50
2019-03-24T04:54:20.050Z,3.40
2019-03-24T04:56:50.503Z,3.40
2019-03-24T04:59:20.827Z,3.30
2019-03-24T05:01:51.213Z,3.10
2019-03-24T05:04:21.534Z,3.00
2019-03-24T05:06:52.154Z,2.90
2019-03-24T05:09:23.038Z,2.80
2019-03-24T05:11:53.245Z,2.60
2019-03-24T05:14:23.666Z,2.60
2019-03-24T05:16:54.266Z,2.50
2019-03-24T05:19:25.206Z,2.50
2019-03-24T05:21:55.582Z,2.50
2019-03-24T05:24:27.040Z,2.50
2019-03-24T05:26:57.402Z,2.40
2019-03-24T05:29:28.033Z,2.60
2019-03-24T05:31:58.713Z,2.50
2019-03-24T05:34:29.254Z,2.50
2019-03-24T05:36:59.621Z,2.30
2019-03-24T05:39:30.268Z,2.30
2019-03-24T05:42:01.335Z,2.30
2019-03-24T05:44:31.896Z,2.40
2019-03-24T05:47:02.302Z,2.60
2019-03-24T05:49:32.738Z,2.60
2019-03-24T05:52:03.106Z,2.70
2019-03-24T05:54:33.782Z,2.70
2019-03-24T05:57:04.497Z,2.80
2019-03-24T05:59:34.997Z,2.90
2019-03-24T06:02:05.686Z,3.10
2019-03-24T06:04:36.341Z,3.10
2019-03-24T06:07:06.980Z,3.10
2019-03-24T06:09:37.949Z,3.00
2019-03-24T06:12:08.372Z,3.00
2019-03-24T06:14:38.826Z,3.00
2019-03-24T06:17:09.235Z,3.00
2019-03-24T06:19:39.557Z,3.00
2019-03-24T06:22:09.874Z,3.00
2019-03-24T06:24:40.245Z,3.00
2019-03-24T06:27:10.894Z,3.10
2019-03-24T06:29:41.110Z,3.10
2019-03-24T06:32:12.061Z,3.20
2019-03-24T06:34:42.339Z,3.20
2019-03-24T06:37:12.928Z,3.20
2019-03-24T06:39:43.346Z,3.20
2019-03-24T06:42:13.967Z,3.20
2019-03-24T06:44:44.246Z,3.40
2019-03-24T06:47:14.918Z,3.40
2019-03-24T06:49:45.502Z,3.50
2019-03-24T06:52:16.437Z,3.70
2019-03-24T06:54:47.049Z,3.80
2019-03-24T06:57:17.575Z,3.90
2019-03-24T06:59:48.129Z,3.90
2019-03-24T07:02:18.693Z,4.10
2019-03-24T07:04:49.247Z,4.30
2019-03-24T07:07:19.841Z,4.40
2019-03-24T07:09:50.402Z,4.50
2019-03-24T07:12:20.787Z,4.90
2019-03-24T07:14:51.081Z,5.60
2019-03-24T07:17:21.342Z,6.60
2019-03-24T07:19:51.642Z,7.30
2019-03-24T07:22:22.017Z,8.00
2019-03-24T07:24:52.392Z,7.90
2019-03-24T07:27:22.689Z,7.80
2019-03-24T07:29:53.057Z,7.50
2019-03-24T07:32:23.382Z,7.30
2019-03-24T07:34:53.685Z,7.20
2019-03-24T07:37:24.122Z,7.10
2019-03-24T07:39:54.443Z,7.10
2019-03-24T07:42:24.852Z,7.10
2019-03-24T07:44:55.237Z,7.20
2019-03-24T07:47:25.617Z,7.50
2019-03-24T07:49:55.997Z,8.00
2019-03-24T07:52:27.224Z,8.70
2019-03-24T07:55:00.666Z,9.50
2019-03-24T07:57:32.445Z,10.10
2019-03-24T08:00:06.817Z,11.40
2019-03-24T08:02:37.234Z,12.10
2019-03-24T08:05:10.478Z,12.00
2019-03-24T08:07:43.031Z,11.40
2019-03-24T08:10:13.830Z,11.00
2019-03-24T08:12:52.890Z,11.10
2019-03-24T08:15:45.038Z,11.10
2019-03-24T08:18:18.166Z,11.20
2019-03-24T08:20:49.121Z,11.80
2019-03-24T08:23:19.521Z,12.10
2019-03-24T08:25:49.813Z,14.40
2019-03-24T08:28:20.434Z,16.90
2019-03-24T08:30:50.818Z,17.90
2019-03-24T08:33:21.150Z,18.80
2019-03-24T08:35:51.569Z,19.30
2019-03-24T08:38:22.053Z,19.60
2019-03-24T08:40:53.935Z,20.30
2019-03-24T08:43:24.505Z,20.20
2019-03-24T08:45:54.942Z,20.40
2019-03-24T08:48:25.357Z,20.30
2019-03-24T08:50:55.708Z,21.40
2019-03-24T08:53:25.974Z,22.00
2019-03-24T08:55:56.364Z,22.30
2019-03-24T08:58:26.758Z,21.50
2019-03-24T09:00:57.136Z,22.20
2019-03-24T09:03:27.457Z,22.20
2019-03-24T09:05:58.473Z,22.50
2019-03-24T09:08:28.947Z,22.20
2019-03-24T09:11:00.110Z,21.80
2019-03-24T09:13:30.688Z,22.10
2019-03-24T09:16:01.387Z,22.40
2019-03-24T09:18:35.337Z,22.60
2019-03-24T09:21:05.962Z,23.30
2019-03-24T09:23:36.942Z,22.40
2019-03-24T09:26:07.645Z,22.00
2019-03-24T09:28:38.414Z,21.90
2019-03-24T09:31:12.222Z,21.80
2019-03-24T09:33:42.590Z,22.50
2019-03-24T09:36:14.026Z,23.30
2019-03-24T09:38:44.754Z,23.20
2019-03-24T09:41:15.485Z,23.10
2019-03-24T09:43:46.316Z,23.20
2019-03-24T09:46:17.068Z,23.10
2019-03-24T09:48:48.087Z,23.40
2019-03-24T09:51:20.103Z,23.70
2019-03-24T09:53:50.550Z,23.90
2019-03-24T09:56:21.195Z,23.10
2019-03-24T09:58:51.722Z,23.10
2019-03-24T10:01:22.094Z,23.20
2019-03-24T10:03:52.417Z,22.70
2019-03-24T10:06:22.781Z,22.60
2019-03-24T10:08:53.222Z,22.20
2019-03-24T10:11:24.117Z,22.90
2019-03-24T10:13:54.835Z,23.00
2019-03-24T10:16:25.730Z,23.00
2019-03-24T10:18:56.954Z,23.30
2019-03-24T10:21:27.701Z,22.40
2019-03-24T10:23:58.381Z,22.60
2019-03-24T10:26:28.790Z,22.50
2019-03-24T10:29:00.714Z,23.00
2019-03-24T10:31:31.077Z,23.70
2019-03-24T10:34:01.613Z,23.80
2019-03-24T10:36:32.016Z,23.60
2019-03-24T10:39:02.436Z,24.10
2019-03-24T10:41:32.727Z,24.10
2019-03-24T10:44:03.130Z,24.00
2019-03-24T10:46:33.427Z,23.40
2019-03-24T10:49:04.013Z,23.20
2019-03-24T10:51:34.361Z,23.20
2019-03-24T10:54:04.805Z,23.40
2019-03-24T10:56:35.537Z,23.70
2019-03-24T10:59:06.706Z,23.40
2019-03-24T11:01:37.620Z,23.00
2019-03-24T11:04:08.084Z,23.10
2019-03-24T11:06:39.072Z,23.30
2019-03-24T11:09:09.482Z,23.10
2019-03-24T11:11:40.137Z,23.50
2019-03-24T11:14:11.142Z,23.20
2019-03-24T11:16:41.437Z,23.50
2019-03-24T11:19:11.822Z,23.20
2019-03-24T11:21:42.134Z,23.20
2019-03-24T11:24:12.461Z,23.20
2019-03-24T11:26:42.877Z,23.20
2019-03-24T11:29:13.297Z,23.10
2019-03-24T11:31:44.190Z,23.50
2019-03-24T11:34:14.525Z,24.00
2019-03-24T11:36:44.802Z,24.20
2019-03-24T11:39:15.101Z,23.90
2019-03-24T11:41:45.754Z,24.10
2019-03-24T11:44:16.437Z,24.20
2019-03-24T11:46:47.330Z,24.00
2019-03-24T11:49:20.977Z,23.70
2019-03-24T11:51:51.426Z,23.70
2019-03-24T11:54:22.110Z,23.10
2019-03-24T11:56:52.563Z,22.80
2019-03-24T11:59:22.991Z,23.20
2019-03-24T12:01:53.782Z,23.40
2019-03-24T12:04:24.101Z,23.70
2019-03-24T12:06:54.621Z,23.70
2019-03-24T12:09:25.036Z,23.80
2019-03-24T12:11:55.813Z,23.20
2019-03-24T12:14:26.758Z,23.30
2019-03-24T12:16:57.479Z,23.00
2019-03-24T12:19:27.852Z,22.80
2019-03-24T12:21:58.521Z,23.30
2019-03-24T12:24:28.842Z,23.80
2019-03-24T12:26:59.285Z,24.10
2019-03-24T12:29:29.621Z,23.90
2019-03-24T12:32:00.090Z,24.00
2019-03-24T12:34:30.790Z,24.00
2019-03-24T12:37:01.345Z,24.30
2019-03-24T12:39:32.082Z,24.50
2019-03-24T12:42:02.387Z,24.50
2019-03-24T12:44:33.265Z,23.80
2019-03-24T12:47:03.644Z,22.80
2019-03-24T12:49:34.221Z,22.70
2019-03-24T12:52:06.371Z,22.20
2019-03-24T12:54:36.738Z,22.50
2019-03-24T12:57:07.037Z,22.70
2019-03-24T12:59:37.429Z,23.00
2019-03-24T13:02:07.738Z,22.30
2019-03-24T13:04:38.203Z,21.40
2019-03-24T13:07:08.577Z,20.70
2019-03-24T13:09:40.734Z,21.00
2019-03-24T13:12:11.033Z,20.20
2019-03-24T13:14:41.351Z,19.50
2019-03-24T13:17:11.835Z,19.70
2019-03-24T13:19:42.275Z,20.50
2019-03-24T13:22:12.814Z,20.70
2019-03-24T13:24:44.334Z,20.90
2019-03-24T13:27:16.113Z,20.90
2019-03-24T13:29:48.478Z,20.60
2019-03-24T13:32:18.874Z,20.90
2019-03-24T13:34:49.278Z,20.50
2019-03-24T13:37:19.698Z,19.90
2019-03-24T13:39:50.084Z,19.30
2019-03-24T13:42:20.551Z,18.90
2019-03-24T13:44:51.178Z,19.00
2019-03-24T13:47:22.183Z,19.10
2019-03-24T13:49:52.919Z,19.20
2019-03-24T13:52:23.401Z,19.00
2019-03-24T13:54:54.282Z,19.00
2019-03-24T13:57:25.198Z,18.90
2019-03-24T13:59:55.572Z,18.80
2019-03-24T14:02:26.580Z,18.50
2019-03-24T14:04:56.950Z,18.30
2019-03-24T14:07:28.158Z,18.30
2019-03-24T14:09:58.541Z,18.40
2019-03-24T14:12:29.050Z,18.20
2019-03-24T14:14:59.342Z,18.30
2019-03-24T14:17:30.018Z,18.40
2019-03-24T14:20:00.961Z,18.50
2019-03-24T14:22:31.424Z,18.40
2019-03-24T14:25:01.797Z,18.40
2019-03-24T14:27:32.228Z,18.30
2019-03-24T14:30:02.634Z,18.30
2019-03-24T14:32:33.151Z,18.30
2019-03-24T14:35:04.046Z,18.20
2019-03-24T14:37:34.842Z,18.10
2019-03-24T14:40:06.786Z,18.20
2019-03-24T14:42:37.534Z,18.10
2019-03-24T14:45:08.796Z,18.10
2019-03-24T14:47:39.682Z,17.90
2019-03-24T14:50:10.508Z,17.70
2019-03-24T14:52:41.833Z,17.80
2019-03-24T14:55:12.287Z,17.80
2019-03-24T14:57:42.690Z,17.80
2019-03-24T15:00:13.672Z,17.70
2019-03-24T15:02:44.834Z,17.70
2019-03-24T15:05:15.584Z,17.80
2019-03-24T15:07:46.299Z,17.60
2019-03-24T15:10:17.134Z,17.40
2019-03-24T15:12:48.367Z,17.50
2019-03-24T15:15:19.542Z,17.30
2019-03-24T15:17:50.485Z,17.30
2019-03-24T15:20:21.144Z,17.10
2019-03-24T15:22:51.818Z,17.00
2019-03-24T15:25:22.197Z,16.90
2019-03-24T15:27:53.114Z,16.90
2019-03-24T15:30:23.505Z,17.00
2019-03-24T15:32:53.906Z,17.00
2019-03-24T15:35:24.251Z,16.90
2019-03-24T15:38:05.750Z,16.70
2019-03-24T15:40:27.039Z,16.60
2019-03-24T15:42:57.675Z,16.50
2019-03-24T15:45:28.057Z,16.50
2019-03-24T15:47:58.450Z,16.60
2019-03-24T15:50:28.831Z,16.60
2019-03-24T15:52:59.204Z,16.50
2019-03-24T15:55:35.836Z,16.60
2019-03-24T15:58:06.195Z,16.50
2019-03-24T16:00:49.949Z,16.40
2019-03-24T16:03:20.398Z,16.30
2019-03-24T16:05:51.172Z,16.10
2019-03-24T16:08:21.630Z,16.00
2019-03-24T16:10:52.449Z,16.00
2019-03-24T16:13:23.143Z,15.90
2019-03-24T16:15:54.082Z,15.80
2019-03-24T16:18:24.871Z,15.60
2019-03-24T16:20:55.721Z,15.50
2019-03-24T16:23:26.595Z,15.40
2019-03-24T16:25:57.037Z,15.40
2019-03-24T16:28:27.490Z,15.30
2019-03-24T16:30:58.129Z,15.30
2019-03-24T16:33:28.720Z,15.30
2019-03-24T16:35:59.774Z,15.30
2019-03-24T16:41:30.408Z,15.20
2019-03-24T16:44:00.825Z,15.10
2019-03-24T16:46:32.569Z,15.10
2019-03-24T16:49:03.542Z,15.00
2019-03-24T16:51:39.042Z,14.90
2019-03-24T16:54:07.762Z,14.90
2019-03-24T16:56:38.431Z,14.80
2019-03-24T16:59:09.438Z,14.70
2019-03-24T17:01:40.751Z,14.60
2019-03-24T17:04:11.183Z,14.60
2019-03-24T17:06:41.938Z,14.50
2019-03-24T17:09:12.608Z,14.50
2019-03-24T17:11:43.158Z,14.40
2019-03-24T17:14:13.798Z,14.30
2019-03-24T17:16:44.157Z,14.20
2019-03-24T17:19:14.606Z,14.10
2019-03-24T17:21:49.983Z,14.10
2019-03-24T17:24:17.752Z,14.00
2019-03-24T17:26:48.776Z,13.90
2019-03-24T17:29:19.088Z,13.90
2019-03-24T17:31:49.397Z,13.80
2019-03-24T17:34:19.807Z,13.70
2019-03-24T17:36:53.189Z,13.60
2019-03-24T17:39:23.563Z,13.50
2019-03-24T17:41:54.100Z,13.40
2019-03-24T17:44:24.730Z,13.40
2019-03-24T17:46:55.200Z,13.50
2019-03-24T17:49:25.916Z,13.50
2019-03-24T17:52:00.596Z,13.40
2019-03-24T17:54:29.406Z,13.40
2019-03-24T17:57:00.350Z,13.40
2019-03-24T17:59:30.708Z,13.30
2019-03-24T18:02:01.420Z,13.30
2019-03-24T18:04:32.997Z,13.20
2019-03-24T18:07:03.639Z,13.00
2019-03-24T18:09:34.413Z,12.80
2019-03-24T18:12:04.785Z,12.60
2019-03-24T18:14:35.011Z,12.40
2019-03-24T18:17:05.397Z,12.20
2019-03-24T18:19:35.710Z,12.10
2019-03-24T18:22:11.581Z,11.90
2019-03-24T18:24:38.502Z,11.80
2019-03-24T18:27:08.890Z,11.70
2019-03-24T18:29:39.271Z,11.60
2019-03-24T18:32:09.894Z,11.50
2019-03-24T18:34:40.243Z,11.50
2019-03-24T18:37:10.914Z,11.40
2019-03-24T18:39:41.318Z,11.40
2019-03-24T18:42:13.473Z,11.30
2019-03-24T18:44:45.750Z,11.20
2019-03-24T18:47:16.154Z,11.10
2019-03-24T18:49:47.599Z,11.00
2019-03-24T18:52:22.710Z,10.80
2019-03-24T18:54:56.277Z,10.70
2019-03-24T18:57:26.598Z,10.60
2019-03-24T18:59:57.001Z,10.50
2019-03-24T19:02:28.829Z,10.50
2019-03-24T19:04:59.207Z,10.50
2019-03-24T19:07:29.924Z,10.50
2019-03-24T19:10:01.162Z,10.60
2019-03-24T19:12:31.923Z,10.70
2019-03-24T19:15:02.765Z,10.90
2019-03-24T19:17:33.119Z,11.10
2019-03-24T19:20:03.517Z,11.20
2019-03-24T19:22:34.218Z,11.20
2019-03-24T19:25:04.969Z,11.30
2019-03-24T19:27:35.403Z,11.40
2019-03-24T19:30:06.357Z,11.50
2019-03-24T19:32:36.861Z,11.60
2019-03-24T19:35:07.955Z,11.60
2019-03-24T19:37:38.859Z,11.50
2019-03-24T19:40:19.550Z,11.50
2019-03-24T19:42:53.481Z,11.60
2019-03-24T19:45:24.451Z,11.60
2019-03-24T19:47:55.150Z,11.60
2019-03-24T19:50:25.590Z,11.60
2019-03-24T19:52:56.243Z,11.60
2019-03-24T19:55:26.609Z,11.70
2019-03-24T19:57:57.034Z,11.70
2019-03-24T20:00:27.440Z,11.70
2019-03-24T20:03:01.181Z,11.70
2019-03-24T20:05:34.308Z,11.60
2019-03-24T20:08:04.784Z,11.60
2019-03-24T20:10:35.620Z,11.40
2019-03-24T20:13:06.390Z,11.30
2019-03-24T20:15:37.102Z,11.20
2019-03-24T20:18:07.722Z,11.10
2019-03-24T20:20:38.442Z,11.20
2019-03-24T20:23:09.123Z,11.20
2019-03-24T20:25:39.698Z,11.30
2019-03-24T20:28:09.937Z,11.30
2019-03-24T20:30:40.671Z,11.40
2019-03-24T20:33:10.998Z,11.40
2019-03-24T20:35:42.166Z,11.40
2019-03-24T20:38:12.837Z,11.30
2019-03-24T20:40:43.621Z,11.30
2019-03-24T20:43:13.859Z,11.30
2019-03-24T20:45:44.237Z,11.30
2019-03-24T20:48:14.937Z,11.20
2019-03-24T20:50:45.927Z,11.20
2019-03-24T20:53:18.284Z,11.20
2019-03-24T20:55:48.998Z,11.10
2019-03-24T20:58:19.666Z,11.10
2019-03-24T21:00:50.043Z,11.00
2019-03-24T21:03:20.433Z,10.90
2019-03-24T21:05:51.187Z,10.80
2019-03-24T21:08:21.878Z,10.70
2019-03-24T21:10:52.333Z,10.50
2019-03-24T21:13:22.933Z,10.30
2019-03-24T21:15:53.229Z,10.10
2019-03-24T21:18:23.638Z,10.10
2019-03-24T21:20:54.017Z,10.00
2019-03-24T21:23:29.453Z,9.90
2019-03-24T21:25:57.191Z,9.70
2019-03-24T21:28:28.144Z,9.50
2019-03-24T21:30:58.522Z,9.30
2019-03-24T21:33:29.161Z,9.10
2019-03-24T21:35:59.464Z,9.10
2019-03-24T21:38:30.427Z,9.10
2019-03-24T21:41:01.345Z,9.20
2019-03-24T21:43:31.733Z,9.30
2019-03-24T21:46:02.506Z,9.20
2019-03-24T21:48:32.889Z,9.20
2019-03-24T21:51:03.266Z,9.20
2019-03-24T21:53:40.708Z,9.20
2019-03-24T21:56:05.848Z,9.10
2019-03-24T21:58:36.734Z,9.00
2019-03-24T22:01:07.511Z,9.00
2019-03-24T22:03:38.166Z,8.90
2019-03-24T22:06:08.740Z,8.90
2019-03-24T22:08:39.109Z,8.80
2019-03-24T22:11:09.784Z,8.70
2019-03-24T22:13:40.087Z,8.70
2019-03-24T22:16:10.466Z,8.70
2019-03-24T22:18:41.422Z,8.60
2019-03-24T22:21:11.673Z,8.50
2019-03-24T22:23:51.936Z,8.40
2019-03-24T22:26:14.793Z,8.30
2019-03-24T22:28:45.515Z,8.30
2019-03-24T22:31:15.810Z,8.20
2019-03-24T22:33:47.231Z,8.30
2019-03-24T22:36:18.097Z,8.40
2019-03-24T22:38:48.763Z,8.40
2019-03-24T22:41:19.055Z,8.30
2019-03-24T22:43:49.688Z,8.30
2019-03-24T22:46:20.225Z,8.20
2019-03-24T22:48:50.871Z,8.00
2019-03-24T22:51:21.589Z,8.00
2019-03-24T22:54:02.784Z,7.90
2019-03-24T22:56:24.299Z,8.00
2019-03-24T22:58:54.594Z,8.00
2019-03-24T23:01:25.115Z,8.30
2019-03-24T23:03:55.601Z,8.30
2019-03-24T23:06:25.888Z,8.30
2019-03-24T23:08:56.234Z,8.30
2019-03-24T23:11:26.666Z,8.30
2019-03-24T23:13:56.963Z,8.30
2019-03-24T23:16:27.253Z,8.30
2019-03-24T23:18:57.628Z,8.20
2019-03-24T23:21:28.270Z,8.20
2019-03-24T23:23:58.842Z,8.20
2019-03-24T23:26:29.122Z,8.00
2019-03-24T23:28:59.819Z,7.90
2019-03-24T23:31:30.451Z,7.90
2019-03-24T23:34:00.673Z,7.80
2019-03-24T23:36:31.221Z,7.80
2019-03-24T23:39:01.897Z,7.80
2019-03-24T23:41:32.193Z,7.70
2019-03-24T23:44:03.970Z,7.60
2019-03-24T23:46:34.698Z,7.60
2019-03-24T23:49:05.078Z,7.50
2019-03-24T23:51:36.020Z,7.50
2019-03-24T23:54:06.414Z,7.50
2019-03-24T23:56:36.965Z,7.50
2019-03-24T23:59:07.601Z,7.50
